createdAt,value
2023-05-25T00:01:50.146Z,8.77
2023-05-25T00:04:17.154Z,6.75
2023-05-25T00:06:44.362Z,6.75
2023-05-25T00:09:12.253Z,6.30
2023-05-25T00:11:38.846Z,11.95
2023-05-25T00:14:05.463Z,6.80
2023-05-25T00:16:32.047Z,11.90
2023-05-25T00:18:58.583Z,8.70
2023-05-25T00:21:25.111Z,7.97
2023-05-25T00:23:51.650Z,12.80
2023-05-25T00:26:19.540Z,9.32
2023-05-25T00:28:46.078Z,7.82
2023-05-25T00:31:12.693Z,6.72
2023-05-25T00:33:39.459Z,7.18
2023-05-25T00:36:06.483Z,9.60
2023-05-25T00:38:33.003Z,7.57
2023-05-25T00:40:59.579Z,7.82
2023-05-25T00:43:27.485Z,7.57
2023-05-25T00:45:54.289Z,12.65
2023-05-25T00:48:21.852Z,10.23
2023-05-25T00:50:48.633Z,12.82
2023-05-25T00:53:15.415Z,9.13
2023-05-25T00:55:49.398Z,17.42
2023-05-25T00:58:17.841Z,11.25
2023-05-25T01:00:47.787Z,12.93
2023-05-25T01:03:15.695Z,10.05
2023-05-25T01:05:43.035Z,8.50
2023-05-25T01:08:11.816Z,12.73
2023-05-25T01:10:39.234Z,10.77
2023-05-25T01:13:08.641Z,14.13
2023-05-25T01:15:37.152Z,13.70
2023-05-25T01:18:05.305Z,8.27
2023-05-25T01:20:31.983Z,12.23
2023-05-25T01:23:10.531Z,10.40
2023-05-25T01:25:40.093Z,8.13
2023-05-25T01:28:09.288Z,6.78
2023-05-25T01:30:37.815Z,12.10
2023-05-25T01:33:05.323Z,7.00
2023-05-25T01:35:32.964Z,7.97
2023-05-25T01:38:01.529Z,11.70
2023-05-25T01:40:28.383Z,10.43
2023-05-25T01:42:55.015Z,9.40
2023-05-25T01:45:21.771Z,7.03
2023-05-25T01:47:57.422Z,8.90
2023-05-25T01:50:30.858Z,7.38
2023-05-25T01:53:02.961Z,9.00
2023-05-25T01:55:33.023Z,14.38
2023-05-25T01:58:00.805Z,15.07
2023-05-25T02:00:29.611Z,12.90
2023-05-25T02:02:56.274Z,15.43
2023-05-25T02:05:22.860Z,12.48
2023-05-25T02:07:49.416Z,16.88
2023-05-25T02:10:17.318Z,11.38
2023-05-25T02:12:43.892Z,10.55
2023-05-25T02:15:11.045Z,7.88
2023-05-25T02:17:37.692Z,9.45
2023-05-25T02:20:05.053Z,6.72
2023-05-25T02:22:31.681Z,10.02
2023-05-25T02:24:58.271Z,13.85
2023-05-25T02:27:26.153Z,15.23
2023-05-25T02:29:52.650Z,12.98
2023-05-25T02:32:19.277Z,8.52
2023-05-25T02:34:45.809Z,10.48
2023-05-25T02:37:12.327Z,11.52
2023-05-25T02:39:39.288Z,7.80
2023-05-25T02:42:05.902Z,14.48
2023-05-25T02:44:33.770Z,11.48
2023-05-25T02:47:00.397Z,12.88
2023-05-25T02:49:26.974Z,15.48
2023-05-25T02:51:53.478Z,13.02
2023-05-25T02:54:20.014Z,11.98
2023-05-25T02:56:46.637Z,9.85
2023-05-25T02:59:13.162Z,8.90
2023-05-25T03:01:41.053Z,11.50
2023-05-25T03:04:07.784Z,15.45
2023-05-25T03:06:34.439Z,16.98
2023-05-25T03:09:00.949Z,11.73
2023-05-25T03:11:27.427Z,10.95
2023-05-25T03:13:53.986Z,11.75
2023-05-25T03:16:20.476Z,14.20
2023-05-25T03:18:48.369Z,13.18
2023-05-25T03:21:14.973Z,11.18
2023-05-25T03:23:41.481Z,8.35
2023-05-25T03:26:08.032Z,10.43
2023-05-25T03:28:34.579Z,11.45
2023-05-25T03:31:01.087Z,6.85
2023-05-25T03:33:27.595Z,8.43
2023-05-25T03:35:55.416Z,12.68
2023-05-25T03:38:22.040Z,13.48
2023-05-25T03:40:48.521Z,12.27
2023-05-25T03:43:15.030Z,9.63
2023-05-25T03:45:41.651Z,14.18
2023-05-25T03:48:08.326Z,9.35
2023-05-25T03:50:34.826Z,8.50
2023-05-25T03:53:02.679Z,13.63
2023-05-25T03:55:29.206Z,9.90
2023-05-25T03:57:55.666Z,9.70
2023-05-25T04:00:22.147Z,11.88
2023-05-25T04:02:48.733Z,11.63
2023-05-25T04:05:15.402Z,11.38
2023-05-25T04:07:41.904Z,12.40
2023-05-25T04:10:11.024Z,16.55
2023-05-25T04:12:37.682Z,12.82
2023-05-25T04:15:05.296Z,15.00
2023-05-25T04:17:31.833Z,13.50
2023-05-25T04:19:58.411Z,11.63
2023-05-25T04:22:24.931Z,12.70
2023-05-25T04:24:51.481Z,13.80
2023-05-25T04:27:19.673Z,9.80
2023-05-25T04:29:46.351Z,14.20
2023-05-25T04:32:12.855Z,9.68
2023-05-25T04:34:39.414Z,13.93
2023-05-25T04:37:05.966Z,11.65
2023-05-25T04:39:32.472Z,12.95
2023-05-25T04:41:59.119Z,12.82
2023-05-25T04:44:27.030Z,11.15
2023-05-25T04:46:53.677Z,11.05
2023-05-25T04:49:20.692Z,12.10
2023-05-25T04:51:47.375Z,14.13
2023-05-25T04:54:13.991Z,12.00
2023-05-25T04:56:40.571Z,9.13
2023-05-25T04:59:07.123Z,10.35
2023-05-25T05:01:35.078Z,11.30
2023-05-25T05:04:01.921Z,10.32
2023-05-25T05:06:28.542Z,7.30
2023-05-25T05:08:55.093Z,11.98
2023-05-25T05:11:21.618Z,10.10
2023-05-25T05:13:48.153Z,9.82
2023-05-25T05:16:14.814Z,16.33
2023-05-25T05:18:42.805Z,8.95
2023-05-25T05:21:09.313Z,11.63
2023-05-25T05:23:35.840Z,12.05
2023-05-25T05:26:02.367Z,9.05
2023-05-25T05:28:29.516Z,13.90
2023-05-25T05:30:56.107Z,11.10
2023-05-25T05:33:22.762Z,10.90
2023-05-25T05:35:50.914Z,12.65
2023-05-25T05:38:17.420Z,12.32
2023-05-25T05:40:44.170Z,11.23
2023-05-25T05:43:12.170Z,9.07
2023-05-25T05:45:38.705Z,10.80
2023-05-25T05:48:06.109Z,15.38
2023-05-25T05:50:32.642Z,10.07
2023-05-25T05:53:00.497Z,13.45
2023-05-25T05:55:27.033Z,8.13
2023-05-25T05:57:53.549Z,10.35
2023-05-25T06:00:20.588Z,7.35
2023-05-25T06:02:47.546Z,10.35
2023-05-25T06:05:14.573Z,9.40
2023-05-25T06:07:41.267Z,12.98
2023-05-25T06:10:09.813Z,8.25
2023-05-25T06:12:36.704Z,13.88
2023-05-25T06:15:03.546Z,11.38
2023-05-25T06:17:30.132Z,13.48
2023-05-25T06:19:56.762Z,8.18
2023-05-25T06:22:23.321Z,11.57
2023-05-25T06:24:49.868Z,9.23
2023-05-25T06:27:17.845Z,15.52
2023-05-25T06:29:44.437Z,10.93
2023-05-25T06:32:11.094Z,10.48
2023-05-25T06:34:38.248Z,10.60
2023-05-25T06:37:05.350Z,10.50
2023-05-25T06:39:31.880Z,10.55
2023-05-25T06:41:58.407Z,10.65
2023-05-25T06:44:26.278Z,11.30
2023-05-25T06:46:52.863Z,9.80
2023-05-25T06:49:19.479Z,10.50
2023-05-25T06:51:46.016Z,11.95
2023-05-25T06:54:12.625Z,10.85
2023-05-25T06:56:39.212Z,9.75
2023-05-25T06:59:05.764Z,9.90
2023-05-25T07:01:33.674Z,12.48
2023-05-25T07:04:00.215Z,8.35
2023-05-25T07:06:26.741Z,11.00
2023-05-25T07:08:53.280Z,12.30
2023-05-25T07:11:19.840Z,10.93
2023-05-25T07:13:46.434Z,10.02
2023-05-25T07:16:13.244Z,11.25
2023-05-25T07:18:41.890Z,9.57
2023-05-25T07:21:08.579Z,13.43
2023-05-25T07:23:35.177Z,7.13
2023-05-25T07:26:05.025Z,6.85
2023-05-25T07:28:32.360Z,8.48
2023-05-25T07:30:59.032Z,9.40
2023-05-25T07:33:25.622Z,7.22
2023-05-25T07:35:53.554Z,10.80
2023-05-25T07:38:20.159Z,11.32
2023-05-25T07:40:46.891Z,8.70
2023-05-25T07:43:13.442Z,15.00
2023-05-25T07:45:40.267Z,11.63
2023-05-25T07:48:06.883Z,8.82
2023-05-25T07:50:33.432Z,10.73
2023-05-25T07:53:01.324Z,13.40
2023-05-25T07:55:27.824Z,11.02
2023-05-25T07:57:54.382Z,5.55
2023-05-25T08:00:21.717Z,9.52
2023-05-25T08:02:49.143Z,8.27
2023-05-25T08:05:15.789Z,10.80
2023-05-25T08:07:42.996Z,8.13
2023-05-25T08:10:11.651Z,7.88
2023-05-25T08:12:48.909Z,6.03
2023-05-25T08:15:16.759Z,8.30
2023-05-25T08:17:43.386Z,8.82
2023-05-25T08:20:10.888Z,7.43
2023-05-25T08:22:37.571Z,11.30
2023-05-25T08:25:04.779Z,8.68
2023-05-25T08:27:35.383Z,12.85
2023-05-25T08:30:02.200Z,7.75
2023-05-25T08:32:28.773Z,8.95
2023-05-25T08:34:55.340Z,8.75
2023-05-25T08:37:21.891Z,8.52
2023-05-25T08:39:48.415Z,6.30
2023-05-25T08:42:14.993Z,7.22
2023-05-25T08:44:42.949Z,7.97
2023-05-25T08:47:11.818Z,9.57
2023-05-25T08:49:39.368Z,10.35
2023-05-25T08:52:10.548Z,5.90
2023-05-25T08:54:37.838Z,9.35
2023-05-25T08:57:10.515Z,8.73
2023-05-25T08:59:42.808Z,10.60
2023-05-25T09:02:22.115Z,8.35
2023-05-25T09:04:48.752Z,10.65
2023-05-25T09:07:15.580Z,6.38
2023-05-25T09:09:42.763Z,5.55
2023-05-25T09:12:10.199Z,7.10
2023-05-25T09:14:36.851Z,7.70
2023-05-25T09:17:03.716Z,8.40
2023-05-25T09:19:31.665Z,7.63
2023-05-25T09:22:13.476Z,8.10
2023-05-25T09:24:41.422Z,8.85
2023-05-25T09:27:11.797Z,8.60
2023-05-25T09:29:38.382Z,8.10
2023-05-25T09:32:05.760Z,9.27
2023-05-25T09:34:33.809Z,7.90
2023-05-25T09:37:00.633Z,8.35
2023-05-25T09:39:27.304Z,9.50
2023-05-25T09:41:53.867Z,10.38
2023-05-25T09:44:20.603Z,7.43
2023-05-25T09:46:47.253Z,6.25
2023-05-25T09:49:14.020Z,6.90
2023-05-25T09:51:41.982Z,11.27
2023-05-25T09:54:10.446Z,6.18
2023-05-25T09:56:37.127Z,8.63
2023-05-25T09:59:03.880Z,9.20
2023-05-25T10:01:32.466Z,9.27
2023-05-25T10:04:04.159Z,6.20
2023-05-25T10:06:32.404Z,8.07
2023-05-25T10:09:00.996Z,6.40
2023-05-25T10:11:29.108Z,7.90
2023-05-25T10:13:56.095Z,6.70
2023-05-25T10:16:25.746Z,6.07
2023-05-25T10:18:58.079Z,7.93
2023-05-25T10:21:27.176Z,8.32
2023-05-25T10:23:57.471Z,10.77
2023-05-25T10:26:29.096Z,9.20
2023-05-25T10:28:59.797Z,7.97
2023-05-25T10:31:26.732Z,10.68
2023-05-25T10:33:54.250Z,8.30
2023-05-25T10:36:21.150Z,9.95
2023-05-25T10:38:51.183Z,5.78
2023-05-25T10:41:20.160Z,6.82
2023-05-25T10:43:49.162Z,7.88
2023-05-25T10:46:16.709Z,9.70
2023-05-25T10:48:46.533Z,8.13
2023-05-25T10:51:13.259Z,7.47
2023-05-25T10:53:43.671Z,7.47
2023-05-25T10:56:10.338Z,7.53
2023-05-25T10:58:41.554Z,9.82
2023-05-25T11:01:11.345Z,6.25
2023-05-25T11:03:57.660Z,6.88
2023-05-25T11:07:02.545Z,9.13
2023-05-25T11:09:30.261Z,7.82
2023-05-25T11:12:06.557Z,8.77
2023-05-25T11:14:34.284Z,9.77
2023-05-25T11:17:09.305Z,7.82
2023-05-25T11:19:41.223Z,8.23
2023-05-25T11:22:14.708Z,7.65
2023-05-25T11:27:08.549Z,6.80
2023-05-25T11:29:35.101Z,7.38
2023-05-25T11:32:01.868Z,7.88
2023-05-25T11:34:30.708Z,11.05
2023-05-25T11:36:58.937Z,7.35
2023-05-25T11:39:25.609Z,12.38
2023-05-25T11:41:54.888Z,7.60
2023-05-25T11:44:29.368Z,7.53
2023-05-25T11:46:56.901Z,9.50
2023-05-25T11:49:24.152Z,9.60
2023-05-25T11:51:53.131Z,8.35
2023-05-25T11:54:23.938Z,8.10
2023-05-25T11:56:50.702Z,6.63
2023-05-25T11:59:17.331Z,11.45
2023-05-25T12:01:43.916Z,8.43
2023-05-25T12:04:11.961Z,9.93
2023-05-25T12:06:38.640Z,12.05
2023-05-25T12:09:12.069Z,10.30
2023-05-25T12:14:06.706Z,9.15
2023-05-25T12:16:36.306Z,7.75
2023-05-25T12:19:03.478Z,11.65
2023-05-25T12:21:30.146Z,8.18
2023-05-25T12:23:57.063Z,6.97
2023-05-25T12:26:24.970Z,9.80
2023-05-25T12:28:58.793Z,9.05
2023-05-25T12:31:26.833Z,7.63
2023-05-25T12:34:09.158Z,6.53
2023-05-25T12:36:37.194Z,8.15
2023-05-25T12:39:03.888Z,10.85
2023-05-25T12:41:31.873Z,14.18
2023-05-25T12:43:58.572Z,9.65
2023-05-25T12:46:25.396Z,10.32
2023-05-25T12:48:52.169Z,8.57
2023-05-25T12:51:18.744Z,7.60
2023-05-25T12:53:49.857Z,11.98
2023-05-25T12:56:16.686Z,11.00
2023-05-25T12:58:45.050Z,8.60
2023-05-25T13:01:11.627Z,9.35
2023-05-25T13:03:38.219Z,8.82
2023-05-25T13:06:05.261Z,8.95
2023-05-25T13:08:31.832Z,8.13
2023-05-25T13:10:58.356Z,14.02
2023-05-25T13:13:24.961Z,12.10
2023-05-25T13:15:53.030Z,7.47
2023-05-25T13:18:19.727Z,8.52
2023-05-25T13:20:49.488Z,9.48
2023-05-25T13:23:17.755Z,6.78
2023-05-25T13:25:44.402Z,9.48
2023-05-25T13:28:10.941Z,8.70
2023-05-25T13:30:37.464Z,7.93
2023-05-25T13:33:05.423Z,6.70
2023-05-25T13:35:31.942Z,8.40
2023-05-25T13:37:58.556Z,9.07
2023-05-25T13:40:25.132Z,10.68
2023-05-25T13:42:51.728Z,9.77
2023-05-25T13:45:18.493Z,10.73
2023-05-25T13:47:45.626Z,9.30
2023-05-25T13:50:13.585Z,9.10
2023-05-25T13:52:40.104Z,10.52
2023-05-25T13:55:07.395Z,7.35
2023-05-25T13:57:33.955Z,8.48
2023-05-25T14:00:00.500Z,8.40
2023-05-25T14:02:27.144Z,10.23
2023-05-25T14:04:53.720Z,8.23
2023-05-25T14:07:21.593Z,8.55
2023-05-25T14:09:48.112Z,8.35
2023-05-25T14:12:14.669Z,8.15
2023-05-25T14:14:41.205Z,6.68
2023-05-25T14:17:07.744Z,5.78
2023-05-25T14:19:34.299Z,5.82
2023-05-25T14:22:12.449Z,8.13
2023-05-25T14:24:41.843Z,7.38
2023-05-25T14:27:08.608Z,6.43
2023-05-25T14:29:35.172Z,9.20
2023-05-25T14:32:02.166Z,6.43
2023-05-25T14:34:28.921Z,6.38
2023-05-25T14:36:55.613Z,8.93
2023-05-25T14:39:22.144Z,9.70
2023-05-25T14:41:50.046Z,9.63
2023-05-25T14:44:16.688Z,10.10
2023-05-25T14:46:43.301Z,9.68
2023-05-25T14:49:10.070Z,6.80
2023-05-25T14:51:36.610Z,6.50
2023-05-25T14:54:03.263Z,5.93
2023-05-25T14:56:29.804Z,9.57
2023-05-25T14:58:57.693Z,7.57
2023-05-25T15:01:25.470Z,8.23
2023-05-25T15:03:52.542Z,8.32
2023-05-25T15:06:19.514Z,13.25
2023-05-25T15:08:46.084Z,6.00
2023-05-25T15:11:12.640Z,5.22
2023-05-25T15:13:39.165Z,5.03
2023-05-25T15:16:10.388Z,6.05
2023-05-25T15:18:37.000Z,5.43
2023-05-25T15:21:03.800Z,7.35
2023-05-25T15:23:30.352Z,8.05
2023-05-25T15:25:56.886Z,8.23
2023-05-25T15:28:23.494Z,6.13
2023-05-25T15:30:50.035Z,6.72
2023-05-25T15:33:17.915Z,6.53
2023-05-25T15:35:44.746Z,9.48
2023-05-25T15:38:11.440Z,6.30
2023-05-25T15:40:37.988Z,7.38
2023-05-25T15:43:04.504Z,6.38
2023-05-25T15:45:31.033Z,4.03
2023-05-25T15:47:57.652Z,7.38
2023-05-25T15:50:25.616Z,8.77
2023-05-25T15:52:52.214Z,4.93
2023-05-25T15:55:18.768Z,9.73
2023-05-25T15:57:45.335Z,5.15
2023-05-25T16:00:13.650Z,7.65
2023-05-25T16:02:40.283Z,9.85
2023-05-25T16:05:07.713Z,8.52
2023-05-25T16:07:35.591Z,5.47
2023-05-25T16:10:02.143Z,10.57
2023-05-25T16:12:28.677Z,5.18
2023-05-25T16:14:55.433Z,13.27
2023-05-25T16:17:22.090Z,7.00
2023-05-25T16:19:48.649Z,12.45
2023-05-25T16:22:15.196Z,6.65
2023-05-25T16:24:43.050Z,9.27
2023-05-25T16:27:09.619Z,5.78
2023-05-25T16:29:36.168Z,10.02
2023-05-25T16:32:02.838Z,10.13
2023-05-25T16:34:29.410Z,5.43
2023-05-25T16:36:55.925Z,8.75
2023-05-25T16:39:22.468Z,14.40
2023-05-25T16:41:50.960Z,7.82
2023-05-25T16:44:17.654Z,6.97
2023-05-25T16:46:44.329Z,6.55
2023-05-25T16:49:10.918Z,9.30
2023-05-25T16:51:37.467Z,4.93
2023-05-25T16:54:04.148Z,6.72
2023-05-25T16:56:30.684Z,6.13
2023-05-25T16:58:58.561Z,6.97
2023-05-25T17:01:25.156Z,7.15
2023-05-25T17:03:51.804Z,8.38
2023-05-25T17:06:18.388Z,7.20
2023-05-25T17:08:44.900Z,6.90
2023-05-25T17:11:11.448Z,8.50
2023-05-25T17:13:37.993Z,6.22
2023-05-25T17:16:06.162Z,5.15
2023-05-25T17:18:32.742Z,7.22
2023-05-25T17:20:59.598Z,7.47
2023-05-25T17:23:26.122Z,5.68
2023-05-25T17:25:52.677Z,11.38
2023-05-25T17:28:19.276Z,11.30
2023-05-25T17:30:45.818Z,5.85
2023-05-25T17:33:13.706Z,7.80
2023-05-25T17:35:40.290Z,12.13
2023-05-25T17:38:06.855Z,6.38
2023-05-25T17:40:33.413Z,9.43
2023-05-25T17:42:59.934Z,9.98
2023-05-25T17:45:26.628Z,11.80
2023-05-25T17:47:53.260Z,12.20
2023-05-25T17:50:21.165Z,9.02
2023-05-25T17:52:47.717Z,10.48
2023-05-25T17:55:14.251Z,15.10
2023-05-25T17:57:40.890Z,12.93
2023-05-25T18:00:08.436Z,11.27
2023-05-25T18:02:35.240Z,11.95
2023-05-25T18:05:01.856Z,12.02
2023-05-25T18:07:29.728Z,7.55
2023-05-25T18:09:56.270Z,9.38
2023-05-25T18:12:22.791Z,9.52
2023-05-25T18:14:49.292Z,8.38
2023-05-25T18:17:15.951Z,11.50
2023-05-25T18:19:42.558Z,11.10
2023-05-25T18:22:09.090Z,10.30
2023-05-25T18:24:37.011Z,12.80
2023-05-25T18:27:03.852Z,11.80
2023-05-25T18:29:30.489Z,10.27
2023-05-25T18:31:57.091Z,11.00
2023-05-25T18:34:23.652Z,13.73
2023-05-25T18:36:50.177Z,12.40
2023-05-25T18:39:16.849Z,12.10
2023-05-25T18:41:44.773Z,9.68
2023-05-25T18:44:11.367Z,13.68
2023-05-25T18:46:37.991Z,10.88
2023-05-25T18:49:04.534Z,12.82
2023-05-25T18:51:31.067Z,12.80
2023-05-25T18:53:57.585Z,11.27
2023-05-25T18:56:24.160Z,16.23
2023-05-25T18:58:52.067Z,12.80
2023-05-25T19:01:18.725Z,9.80
2023-05-25T19:03:45.410Z,14.05
2023-05-25T19:06:12.080Z,16.83
2023-05-25T19:08:38.636Z,13.50
2023-05-25T19:11:05.229Z,13.88
2023-05-25T19:13:31.762Z,12.10
2023-05-25T19:15:59.691Z,16.58
2023-05-25T19:18:26.254Z,13.35
2023-05-25T19:20:52.812Z,10.75
2023-05-25T19:23:19.377Z,10.38
2023-05-25T19:25:46.168Z,14.50
2023-05-25T19:28:12.860Z,9.05
2023-05-25T19:30:39.382Z,13.38
2023-05-25T19:33:07.347Z,15.73
2023-05-25T19:35:33.916Z,13.38
2023-05-25T19:38:01.859Z,15.05
2023-05-25T19:40:29.078Z,18.10
2023-05-25T19:42:55.637Z,12.85
2023-05-25T19:45:22.343Z,13.02
2023-05-25T19:47:48.962Z,15.70
2023-05-25T19:50:17.111Z,14.10
2023-05-25T19:52:43.689Z,13.05
2023-05-25T19:55:10.223Z,12.45
2023-05-25T19:57:36.791Z,14.65
2023-05-25T20:00:04.754Z,16.85
2023-05-25T20:02:32.626Z,9.82
2023-05-25T20:04:59.240Z,15.50
2023-05-25T20:07:27.115Z,18.23
2023-05-25T20:09:53.694Z,12.88
2023-05-25T20:12:20.254Z,21.48
2023-05-25T20:14:46.826Z,10.02
2023-05-25T20:17:13.437Z,15.52
2023-05-25T20:19:39.966Z,8.07
2023-05-25T20:22:06.639Z,15.15
2023-05-25T20:24:34.693Z,14.27
2023-05-25T20:27:01.204Z,11.98
2023-05-25T20:29:27.764Z,16.25
2023-05-25T20:31:54.372Z,13.75
2023-05-25T20:34:20.950Z,9.50
2023-05-25T20:36:47.517Z,12.88
2023-05-25T20:39:14.139Z,13.27
2023-05-25T20:41:42.193Z,16.77
2023-05-25T20:44:08.716Z,17.52
2023-05-25T20:46:35.500Z,15.90
2023-05-25T20:49:02.113Z,17.55
2023-05-25T20:51:28.669Z,14.10
2023-05-25T20:53:55.946Z,13.60
2023-05-25T20:56:22.471Z,12.63
2023-05-25T20:58:50.318Z,15.57
2023-05-25T21:01:16.876Z,14.50
2023-05-25T21:03:43.580Z,11.77
2023-05-25T21:06:10.176Z,13.77
2023-05-25T21:08:36.766Z,17.63
2023-05-25T21:11:03.344Z,16.52
2023-05-25T21:13:29.845Z,10.68
2023-05-25T21:15:57.731Z,18.17
2023-05-25T21:18:24.306Z,13.57
2023-05-25T21:20:50.825Z,15.80
2023-05-25T21:23:17.357Z,15.15
2023-05-25T21:25:44.314Z,14.40
2023-05-25T21:28:11.094Z,10.50
2023-05-25T21:30:37.622Z,17.23
2023-05-25T21:33:05.591Z,18.67
2023-05-25T21:35:32.188Z,20.95
2023-05-25T21:37:58.723Z,15.65
2023-05-25T21:40:25.322Z,14.75
2023-05-25T21:42:51.904Z,20.23
2023-05-25T21:45:18.621Z,14.65
2023-05-25T21:47:45.204Z,18.00
2023-05-25T21:50:13.283Z,21.10
2023-05-25T21:52:39.824Z,12.73
2023-05-25T21:55:07.154Z,22.77
2023-05-25T21:57:33.693Z,19.55
2023-05-25T22:00:00.218Z,16.13
2023-05-25T22:02:26.926Z,14.80
2023-05-25T22:04:53.517Z,14.15
2023-05-25T22:07:21.422Z,11.35
2023-05-25T22:09:48.001Z,16.90
2023-05-25T22:12:14.655Z,17.08
2023-05-25T22:14:41.190Z,17.83
2023-05-25T22:17:07.925Z,15.15
2023-05-25T22:19:34.520Z,18.73
2023-05-25T22:22:01.073Z,21.63
2023-05-25T22:24:28.943Z,15.35
2023-05-25T22:26:55.478Z,12.48
2023-05-25T22:29:22.023Z,14.57
2023-05-25T22:31:48.506Z,16.45
2023-05-25T22:34:15.091Z,13.23
2023-05-25T22:36:41.629Z,23.75
2023-05-25T22:39:08.123Z,16.65
2023-05-25T22:41:36.022Z,15.10
2023-05-25T22:44:02.537Z,12.48
2023-05-25T22:46:29.090Z,16.55
2023-05-25T22:48:56.240Z,17.15
2023-05-25T22:51:22.753Z,15.30
2023-05-25T22:53:49.279Z,16.30
2023-05-25T22:56:15.778Z,19.67
2023-05-25T22:58:43.646Z,15.98
2023-05-25T23:01:10.167Z,19.77
2023-05-25T23:03:36.737Z,17.17
2023-05-25T23:06:03.606Z,18.13
2023-05-25T23:08:30.178Z,19.88
2023-05-25T23:10:56.698Z,13.73
2023-05-25T23:13:23.206Z,11.55
2023-05-25T23:15:51.161Z,14.43
2023-05-25T23:18:17.845Z,15.88
2023-05-25T23:20:44.404Z,10.43
2023-05-25T23:23:11.141Z,12.68
2023-05-25T23:25:37.692Z,25.50
2023-05-25T23:28:04.290Z,16.40
2023-05-25T23:30:30.811Z,13.43
2023-05-25T23:32:58.750Z,15.60
2023-05-25T23:35:25.290Z,16.85
2023-05-25T23:37:51.799Z,17.20
2023-05-25T23:40:18.360Z,13.63
2023-05-25T23:42:44.882Z,20.02
2023-05-25T23:45:11.656Z,17.67
2023-05-25T23:47:38.144Z,22.08
2023-05-25T23:50:06.807Z,17.73
2023-05-25T23:52:33.477Z,11.65
2023-05-25T23:54:59.993Z,10.90
2023-05-25T23:57:26.524Z,18.70
2023-05-25T23:59:53.028Z,15.25
